createdAt,value
2022-10-03T00:01:27.284Z,19.63
2022-10-03T00:07:22.379Z,11.55
2022-10-03T00:12:54.756Z,9.18
2022-10-03T00:18:31.577Z,10.18
2022-10-03T00:23:38.835Z,19.25
2022-10-03T00:34:01.327Z,13.20
2022-10-03T00:39:36.312Z,8.52
2022-10-03T00:44:46.852Z,6.15
2022-10-03T00:50:22.045Z,11.18
2022-10-03T00:55:57.932Z,7.40
2022-10-03T01:01:40.362Z,8.10
2022-10-03T01:06:49.167Z,16.08
2022-10-03T01:12:01.636Z,11.52
2022-10-03T01:17:19.661Z,16.77
2022-10-03T01:22:23.759Z,14.07
2022-10-03T01:28:06.065Z,14.55
2022-10-03T01:33:18.610Z,12.70
2022-10-03T01:38:39.050Z,14.98
2022-10-03T01:44:01.924Z,17.05
2022-10-03T01:49:23.261Z,15.40
2022-10-03T01:54:37.648Z,14.98
2022-10-03T01:59:58.866Z,10.98
2022-10-03T02:05:13.099Z,18.73
2022-10-03T02:10:36.191Z,16.10
2022-10-03T02:15:55.616Z,19.42
2022-10-03T02:21:14.961Z,15.60
2022-10-03T02:26:37.904Z,14.57
2022-10-03T02:32:18.315Z,10.25
2022-10-03T02:37:35.245Z,15.75
2022-10-03T02:43:16.221Z,17.27
2022-10-03T02:48:36.134Z,21.17
2022-10-03T02:54:03.252Z,12.55
2022-10-03T02:59:07.612Z,16.50
2022-10-03T03:04:42.860Z,21.48
2022-10-03T03:09:49.985Z,21.33
2022-10-03T03:15:21.649Z,16.75
2022-10-03T03:20:42.366Z,17.95
2022-10-03T03:26:01.895Z,18.83
2022-10-03T03:31:13.702Z,15.40
2022-10-03T03:36:26.498Z,14.57
2022-10-03T03:41:50.952Z,17.75
2022-10-03T03:47:08.832Z,14.63
2022-10-03T03:52:41.741Z,21.30
2022-10-03T03:58:00.855Z,28.02
2022-10-03T04:03:09.246Z,26.67
2022-10-03T04:08:22.436Z,26.00
2022-10-03T04:13:47.735Z,19.50
2022-10-03T04:19:00.635Z,22.33
2022-10-03T04:24:23.826Z,27.00
2022-10-03T04:30:00.252Z,20.15
2022-10-03T04:35:17.213Z,20.80
2022-10-03T04:40:48.368Z,23.90
2022-10-03T04:46:27.131Z,14.52
2022-10-03T04:51:52.100Z,15.15
2022-10-03T04:57:23.418Z,19.35
2022-10-03T05:02:34.561Z,14.05
2022-10-03T05:07:50.869Z,15.52
2022-10-03T05:13:22.911Z,11.70
2022-10-03T05:18:49.069Z,12.32
2022-10-03T05:24:19.171Z,11.38
2022-10-03T05:29:47.815Z,11.52
2022-10-03T05:34:55.225Z,12.00
2022-10-03T05:45:43.204Z,10.60
2022-10-03T05:50:57.750Z,12.15
2022-10-03T05:56:26.877Z,12.32
2022-10-03T06:01:48.762Z,10.55
2022-10-03T06:06:53.214Z,8.30
2022-10-03T06:12:03.984Z,9.57
2022-10-03T06:17:51.330Z,13.60
2022-10-03T06:23:17.697Z,7.47
2022-10-03T06:28:51.180Z,12.18
2022-10-03T06:33:55.368Z,11.90
2022-10-03T06:39:34.008Z,10.77
2022-10-03T06:45:09.818Z,9.05
2022-10-03T06:50:42.809Z,12.88
2022-10-03T06:56:31.780Z,16.40
2022-10-03T07:01:55.934Z,17.00
2022-10-03T07:08:02.257Z,22.38
2022-10-03T07:13:42.832Z,17.92
2022-10-03T07:19:02.835Z,13.45
2022-10-03T07:24:25.872Z,11.05
2022-10-03T07:29:46.326Z,11.38
2022-10-03T07:34:47.635Z,14.07
2022-10-03T07:40:04.336Z,16.40
2022-10-03T07:45:34.573Z,13.23
2022-10-03T07:50:44.543Z,21.83
2022-10-03T07:56:27.485Z,18.95
2022-10-03T08:01:50.146Z,16.70
2022-10-03T08:06:57.888Z,10.95
2022-10-03T08:12:40.338Z,13.50
2022-10-03T08:18:07.937Z,13.85
2022-10-03T08:23:29.422Z,14.63
2022-10-03T08:28:49.380Z,13.23
2022-10-03T08:34:05.094Z,12.57
2022-10-03T08:39:13.490Z,9.43
2022-10-03T08:44:59.030Z,14.63
2022-10-03T08:50:30.336Z,12.50
2022-10-03T08:55:45.527Z,13.70
2022-10-03T09:01:13.234Z,8.68
2022-10-03T09:06:26.970Z,5.55
2022-10-03T09:11:46.940Z,8.20
2022-10-03T09:16:55.814Z,6.55
2022-10-03T09:22:10.200Z,10.93
2022-10-03T09:27:42.694Z,5.57
2022-10-03T09:33:21.450Z,2.72
2022-10-03T09:38:38.050Z,4.13
2022-10-03T09:44:17.887Z,8.17
2022-10-03T09:49:40.488Z,13.73
2022-10-03T09:55:01.519Z,4.15
2022-10-03T10:00:11.100Z,1.90
2022-10-03T10:05:18.536Z,1.52
2022-10-03T10:10:20.902Z,5.97
2022-10-03T10:15:45.374Z,1.52
2022-10-03T10:20:59.569Z,6.40
2022-10-03T10:26:38.993Z,5.18
2022-10-03T10:32:05.292Z,2.60
2022-10-03T10:37:57.635Z,7.57
2022-10-03T10:43:20.739Z,10.00
2022-10-03T10:49:03.719Z,7.93
2022-10-03T10:54:56.086Z,3.50
2022-10-03T11:00:12.398Z,4.88
2022-10-03T11:05:19.718Z,13.47
2022-10-03T11:10:33.278Z,5.95
2022-10-03T11:16:04.952Z,4.75
2022-10-03T11:21:27.761Z,4.82
2022-10-03T11:27:15.303Z,3.92
2022-10-03T11:33:15.909Z,4.88
2022-10-03T11:38:30.150Z,1.75
2022-10-03T11:44:01.984Z,4.97
2022-10-03T11:49:26.727Z,3.53
2022-10-03T11:54:37.210Z,4.05
2022-10-03T12:00:07.999Z,6.25
2022-10-03T12:05:27.743Z,2.65
2022-10-03T12:10:33.739Z,5.45
2022-10-03T12:15:55.036Z,2.77
2022-10-03T12:21:18.501Z,3.92
2022-10-03T12:26:37.557Z,4.80
2022-10-03T12:32:05.971Z,6.40
2022-10-03T12:37:18.536Z,3.38
2022-10-03T12:42:26.724Z,4.88
2022-10-03T12:47:55.644Z,6.30
2022-10-03T12:53:11.013Z,3.80
2022-10-03T12:58:32.595Z,3.38
2022-10-03T13:03:51.449Z,6.63
2022-10-03T13:09:22.250Z,5.30
2022-10-03T13:15:18.204Z,5.03
2022-10-03T13:20:39.280Z,3.90
2022-10-03T13:25:51.291Z,1.48
2022-10-03T13:30:56.487Z,4.32
2022-10-03T13:36:14.950Z,5.55
2022-10-03T13:41:16.525Z,4.70
2022-10-03T13:46:27.352Z,8.05
2022-10-03T13:51:45.818Z,3.05
2022-10-03T13:57:05.857Z,5.55
2022-10-03T14:02:46.096Z,2.70
2022-10-03T14:07:57.957Z,2.30
2022-10-03T14:13:32.699Z,6.30
2022-10-03T14:18:57.947Z,2.30
2022-10-03T14:24:34.792Z,2.33
2022-10-03T14:30:04.091Z,4.00
2022-10-03T14:35:24.679Z,3.58
2022-10-03T14:40:35.654Z,3.78
2022-10-03T14:45:48.393Z,3.63
2022-10-03T14:50:54.874Z,3.28
2022-10-03T14:55:59.969Z,4.65
2022-10-03T15:01:07.506Z,2.70
2022-10-03T15:06:35.140Z,2.97
2022-10-03T15:11:45.605Z,2.25
2022-10-03T15:16:54.895Z,5.18
2022-10-03T15:22:12.518Z,3.22
2022-10-03T15:27:21.372Z,7.45
2022-10-03T15:32:32.570Z,4.82
2022-10-03T15:37:46.751Z,6.97
2022-10-03T15:43:02.374Z,11.38
2022-10-03T15:48:12.055Z,4.50
2022-10-03T15:53:37.177Z,5.90
2022-10-03T15:58:52.722Z,6.10
2022-10-03T16:04:01.679Z,3.75
2022-10-03T16:09:14.346Z,5.13
2022-10-03T16:14:26.454Z,3.63
2022-10-03T16:19:31.059Z,3.95
2022-10-03T16:24:48.844Z,6.93
2022-10-03T16:30:09.031Z,5.68
2022-10-03T16:35:28.002Z,6.28
2022-10-03T16:40:30.195Z,3.88
2022-10-03T16:45:37.391Z,7.32
2022-10-03T16:50:49.647Z,10.15
2022-10-03T16:55:59.830Z,8.93
2022-10-03T17:06:31.205Z,8.35
2022-10-03T17:11:37.421Z,10.98
2022-10-03T17:16:50.632Z,7.90
2022-10-03T17:21:55.105Z,8.90
2022-10-03T17:27:03.018Z,10.82
2022-10-03T17:32:20.042Z,8.80
2022-10-03T17:37:46.038Z,12.07
2022-10-03T17:43:01.227Z,11.50
2022-10-03T17:48:18.612Z,10.45
2022-10-03T17:53:28.874Z,18.70
2022-10-03T17:58:32.947Z,15.63
2022-10-03T18:03:48.380Z,13.15
2022-10-03T18:08:52.198Z,10.25
2022-10-03T18:14:07.942Z,16.25
2022-10-03T18:19:43.412Z,16.90
2022-10-03T18:25:22.928Z,13.93
2022-10-03T18:30:45.471Z,8.85
2022-10-03T18:35:49.581Z,14.13
2022-10-03T18:40:50.966Z,13.20
2022-10-03T18:45:59.472Z,16.08
2022-10-03T18:51:11.819Z,11.25
2022-10-03T18:56:20.836Z,11.95
2022-10-03T19:01:32.612Z,11.93
2022-10-03T19:06:54.725Z,15.40
2022-10-03T19:12:15.554Z,18.50
2022-10-03T19:17:31.821Z,19.83
2022-10-03T19:22:40.282Z,14.55
2022-10-03T19:27:49.633Z,13.95
2022-10-03T19:32:58.084Z,10.93
2022-10-03T19:38:13.360Z,20.20
2022-10-03T19:43:34.430Z,15.10
2022-10-03T19:49:02.199Z,19.35
2022-10-03T19:54:12.880Z,15.35
2022-10-03T19:59:17.791Z,18.88
2022-10-03T20:04:36.602Z,14.15
2022-10-03T20:09:44.185Z,19.77
2022-10-03T20:14:51.216Z,10.00
2022-10-03T20:20:01.044Z,12.82
2022-10-03T20:25:06.171Z,17.23
2022-10-03T20:30:25.660Z,10.57
2022-10-03T20:35:31.093Z,15.10
2022-10-03T20:40:40.248Z,15.25
2022-10-03T20:45:44.591Z,17.80
2022-10-03T20:50:48.061Z,20.05
2022-10-03T20:55:59.870Z,32.33
2022-10-03T21:01:11.424Z,14.50
2022-10-03T21:06:27.423Z,13.77
2022-10-03T21:11:32.173Z,18.75
2022-10-03T21:16:35.581Z,15.23
2022-10-03T21:21:45.847Z,16.20
2022-10-03T21:26:55.419Z,15.13
2022-10-03T21:32:17.915Z,10.75
2022-10-03T21:37:37.249Z,18.13
2022-10-03T21:43:04.723Z,13.48
2022-10-03T21:48:21.447Z,16.25
2022-10-03T21:53:39.820Z,14.27
2022-10-03T21:59:00.276Z,16.35
2022-10-03T22:04:21.294Z,16.70
2022-10-03T22:09:22.800Z,15.30
2022-10-03T22:14:49.313Z,14.88
2022-10-03T22:20:23.636Z,17.13
2022-10-03T22:25:39.737Z,12.50
2022-10-03T22:30:51.306Z,10.65
2022-10-03T22:35:55.242Z,16.20
2022-10-03T22:41:01.359Z,14.55
2022-10-03T22:46:04.629Z,16.65
2022-10-03T22:51:10.708Z,12.35
2022-10-03T22:56:43.931Z,11.10
2022-10-03T23:01:47.476Z,12.90
2022-10-03T23:07:36.826Z,11.65
2022-10-03T23:13:17.496Z,9.95
2022-10-03T23:18:46.583Z,13.50
2022-10-03T23:24:03.503Z,13.85
2022-10-03T23:29:07.434Z,7.97
2022-10-03T23:34:09.887Z,13.13
2022-10-03T23:39:32.572Z,12.70
2022-10-03T23:44:49.037Z,8.40
2022-10-03T23:49:51.865Z,7.95
2022-10-03T23:54:57.154Z,6.90
2022-10-03T23:59:58.794Z,10.52
